Terminal Aerodrome Forecast
Issued by NWS Mobile, AL

Home | Current Version | Previous Version | Text Only | Print | Product List | Glossary On
Versions: 1 2 3 4 5 6 7 8 9 10 11 12 13 14 15 16 17 18 19 20 21 22 23 24 25 26 27 28 29 30 31
000
FTUS44 KMOB 310500
TAFMOB
TAF
KMOB 310531Z 3106/0106 VRB03KT P6SM SCT015 SCT100 BKN200
     FM311500 16010KT P6SM SCT030 SCT120 BKN200
     FM010100 14004KT P6SM FEW025 SCT120 SCT200=

USA.gov is the U.S. government's official web portal to all federal, state and local government web resources and services.